Time;durP1;ratioP1;P1;durP2;ratioP2;P2;SDS_P1;SDS_P2;PMS_P1;PMS_P2;Temp;Humidity;BMP_temperature;BMP_pressure;BME280_temperature;BME280_humidity;BME280_pressure;Samples;Min_cycle;Max_cycle;Signal;HPM_P1;HPM_P2
2022/04/22 00:00:18;;;;;;;5.18;3.58;;;;;;;;;;5013426;28;20088;-67
2022/04/22 00:03:05;;;;;;;4.30;3.58;;;;;;;;;;5016996;28;20076;-69
2022/04/22 00:05:50;;;;;;;5.35;3.75;;;;;;;;;;5025266;28;20045;-67
2022/04/22 00:08:35;;;;;;;8.75;4.22;;;;;;;;;;5016511;28;20024;-68
2022/04/22 00:11:29;;;;;;;7.00;4.13;;;;;;;;;;5017137;28;20029;-67
2022/04/22 00:14:15;;;;;;;7.20;5.05;;;;;;;;;;5029831;28;20195;-68
2022/04/22 00:17:00;;;;;;;5.72;4.10;;;;;;;;;;4997898;28;20116;-67
2022/04/22 00:19:46;;;;;;;7.50;3.58;;;;;;;;;;5007440;28;20037;-68
2022/04/22 00:22:31;;;;;;;10.00;4.20;;;;;;;;;;5000193;28;20084;-70
2022/04/22 00:25:16;;;;;;;5.40;3.83;;;;;;;;;;5013528;28;20064;-69
2022/04/22 00:28:02;;;;;;;5.82;3.55;;;;;;;;;;5010982;28;20045;-71
2022/04/22 00:30:47;;;;;;;7.43;4.65;;;;;;;;;;5007598;28;20043;-67
2022/04/22 00:33:32;;;;;;;5.38;3.85;;;;;;;;;;5009868;28;20048;-71
2022/04/22 00:36:18;;;;;;;7.45;4.28;;;;;;;;;;5002637;28;20084;-70
2022/04/22 00:39:03;;;;;;;5.55;3.92;;;;;;;;;;5007984;28;20036;-69
2022/04/22 00:41:48;;;;;;;7.57;4.32;;;;;;;;;;5002547;28;20056;-70
2022/04/22 00:44:34;;;;;;;7.45;3.75;;;;;;;;;;4998086;28;20029;-71
2022/04/22 00:47:19;;;;;;;5.38;3.83;;;;;;;;;;4983475;28;20073;-75
2022/04/22 00:50:04;;;;;;;8.65;4.20;;;;;;;;;;5007799;28;20021;-67
2022/04/22 00:52:50;;;;;;;6.90;4.03;;;;;;;;;;5003315;28;20499;-67
2022/04/22 00:55:36;;;;;;;7.35;4.63;;;;;;;;;;5025486;28;20112;-66
2022/04/22 00:58:21;;;;;;;7.32;4.20;;;;;;;;;;5016685;28;20107;-68
2022/04/22 01:01:06;;;;;;;6.97;4.03;;;;;;;;;;5015190;28;20095;-69
2022/04/22 01:10:00;;;;;;;6.15;4.30;;;;;;;;;;5015029;28;20029;-68
2022/04/22 01:12:45;;;;;;;7.35;4.43;;;;;;;;;;5015739;28;20068;-67
2022/04/22 01:15:31;;;;;;;6.72;4.13;;;;;;;;;;5016733;28;20109;-68
2022/04/22 01:18:17;;;;;;;6.72;4.63;;;;;;;;;;5007651;28;20072;-68
2022/04/22 01:21:03;;;;;;;6.95;4.30;;;;;;;;;;4998593;28;20030;-69
2022/04/22 01:23:48;;;;;;;6.40;4.70;;;;;;;;;;5020918;28;20562;-74
2022/04/22 01:26:34;;;;;;;5.68;3.92;;;;;;;;;;5015163;28;20034;-65
2022/04/22 01:29:19;;;;;;;6.57;4.50;;;;;;;;;;5013289;28;20049;-64
2022/04/22 01:32:05;;;;;;;7.32;4.60;;;;;;;;;;5011499;28;20088;-62
2022/04/22 01:34:50;;;;;;;7.35;4.93;;;;;;;;;;5015970;28;20091;-63
2022/04/22 01:37:37;;;;;;;8.15;4.55;;;;;;;;;;5011578;28;20587;-63
2022/04/22 01:40:22;;;;;;;7.75;5.07;;;;;;;;;;5003227;28;20036;-64
2022/04/22 01:43:08;;;;;;;7.65;4.85;;;;;;;;;;5006359;28;20481;-76
2022/04/22 01:45:53;;;;;;;9.07;4.68;;;;;;;;;;4999642;28;20048;-66
2022/04/22 01:48:38;;;;;;;5.70;4.25;;;;;;;;;;5013455;28;20018;-65
2022/04/22 01:51:23;;;;;;;7.15;4.72;;;;;;;;;;5009933;28;20116;-65
2022/04/22 01:54:09;;;;;;;6.22;4.55;;;;;;;;;;4999238;28;20053;-68
2022/04/22 01:56:54;;;;;;;7.88;4.38;;;;;;;;;;5012655;28;20025;-67
2022/04/22 01:59:40;;;;;;;8.32;4.95;;;;;;;;;;5009138;28;20029;-66
2022/04/22 02:02:26;;;;;;;6.18;4.75;;;;;;;;;;5013609;28;20114;-67
2022/04/22 02:05:11;;;;;;;9.00;5.20;;;;;;;;;;4983006;28;20385;-69
2022/04/22 02:07:56;;;;;;;8.82;4.90;;;;;;;;;;4984539;28;20660;-69
2022/04/22 02:10:42;;;;;;;10.43;5.18;;;;;;;;;;5008417;28;20037;-70
2022/04/22 02:13:27;;;;;;;8.02;4.82;;;;;;;;;;5014714;28;20021;-69
2022/04/22 02:16:12;;;;;;;8.10;5.30;;;;;;;;;;4986567;28;20393;-69
2022/04/22 02:18:58;;;;;;;8.02;5.53;;;;;;;;;;5025769;28;20468;-66
2022/04/22 02:21:43;;;;;;;8.90;5.25;;;;;;;;;;5001907;28;20184;-66
2022/04/22 02:24:29;;;;;;;10.63;6.43;;;;;;;;;;5011583;28;20088;-66
2022/04/22 02:30:18;;;;;;;9.13;5.38;;;;;;;;;;5000126;28;20018;-66
2022/04/22 02:33:03;;;;;;;10.68;6.13;;;;;;;;;;5004974;28;20033;-66
2022/04/22 02:35:49;;;;;;;7.57;5.30;;;;;;;;;;5008041;28;20128;-66
2022/04/22 02:38:34;;;;;;;10.55;6.10;;;;;;;;;;4995337;28;20471;-70
2022/04/22 02:47:27;;;;;;;9.05;6.40;;;;;;;;;;5027659;28;20132;-68
2022/04/22 02:50:12;;;;;;;8.32;6.07;;;;;;;;;;5014111;28;20053;-68
2022/04/22 02:52:58;;;;;;;9.30;6.28;;;;;;;;;;5000244;28;20033;-67
2022/04/22 02:55:46;;;;;;;9.73;5.82;;;;;;;;;;4998881;28;20623;-72
2022/04/22 02:58:32;;;;;;;11.57;5.88;;;;;;;;;;4997932;28;20044;-67
2022/04/22 03:01:18;;;;;;;9.15;5.95;;;;;;;;;;4997575;28;20037;-69
2022/04/22 03:04:03;;;;;;;9.98;6.38;;;;;;;;;;5013297;28;20495;-66
2022/04/22 03:06:49;;;;;;;8.73;5.82;;;;;;;;;;5018768;28;20042;-67
2022/04/22 03:09:34;;;;;;;8.80;6.38;;;;;;;;;;4995146;28;20036;-66
2022/04/22 03:12:19;;;;;;;10.90;6.43;;;;;;;;;;5016599;28;20152;-68
2022/04/22 03:15:05;;;;;;;8.57;6.32;;;;;;;;;;5014555;28;20033;-67
2022/04/22 03:17:51;;;;;;;10.95;6.53;;;;;;;;;;5000559;28;20037;-68
2022/04/22 03:20:36;;;;;;;10.95;6.82;;;;;;;;;;5002557;28;20057;-68
2022/04/22 03:23:21;;;;;;;11.63;7.05;;;;;;;;;;5018300;28;20396;-71
2022/04/22 03:26:07;;;;;;;10.63;7.18;;;;;;;;;;4996438;28;20037;-68
2022/04/22 03:28:52;;;;;;;9.88;5.85;;;;;;;;;;5031897;28;20791;-68
2022/04/22 03:31:38;;;;;;;10.85;7.07;;;;;;;;;;5007986;28;20025;-68
2022/04/22 03:34:23;;;;;;;11.38;7.55;;;;;;;;;;5018682;28;20440;-66
2022/04/22 03:37:08;;;;;;;14.10;6.97;;;;;;;;;;5016919;28;20030;-64
2022/04/22 03:39:53;;;;;;;13.90;7.40;;;;;;;;;;5012634;28;20030;-64
2022/04/22 03:42:39;;;;;;;11.50;7.35;;;;;;;;;;5015090;28;20036;-64
2022/04/22 03:45:24;;;;;;;11.43;7.13;;;;;;;;;;5031433;28;20029;-64
2022/04/22 03:48:10;;;;;;;11.98;7.78;;;;;;;;;;5002671;28;20576;-65
2022/04/22 03:50:56;;;;;;;9.63;6.68;;;;;;;;;;5020332;28;20037;-67
2022/04/22 03:53:41;;;;;;;11.63;8.05;;;;;;;;;;5011771;28;20393;-64
2022/04/22 03:59:30;;;;;;;11.70;7.60;;;;;;;;;;5017499;28;20481;-64
2022/04/22 04:02:15;;;;;;;10.80;7.10;;;;;;;;;;5016204;28;20022;-63
2022/04/22 04:05:01;;;;;;;12.57;7.57;;;;;;;;;;5018268;28;20543;-64
2022/04/22 04:07:46;;;;;;;12.55;8.45;;;;;;;;;;5002691;28;20417;-65
2022/04/22 04:16:28;;;;;;;12.38;8.23;;;;;;;;;;5030788;28;20471;-69
2022/04/22 04:25:21;;;;;;;11.02;7.22;;;;;;;;;;5009122;28;20021;-70
2022/04/22 04:28:09;;;;;;;13.35;8.55;;;;;;;;;;5016438;28;20037;-74
2022/04/22 04:30:55;;;;;;;14.02;8.68;;;;;;;;;;5007314;28;20040;-67
2022/04/22 04:33:41;;;;;;;12.07;8.45;;;;;;;;;;5011500;28;20033;-67
2022/04/22 04:36:26;;;;;;;12.95;9.60;;;;;;;;;;5023561;28;20033;-68
2022/04/22 04:39:11;;;;;;;13.07;9.50;;;;;;;;;;5013400;28;20068;-69
2022/04/22 04:41:56;;;;;;;15.15;9.02;;;;;;;;;;5003287;28;20048;-68
2022/04/22 04:44:42;;;;;;;12.32;9.30;;;;;;;;;;5002264;28;20373;-67
2022/04/22 04:47:27;;;;;;;15.65;9.15;;;;;;;;;;4999385;28;20042;-64
2022/04/22 04:50:13;;;;;;;14.02;9.13;;;;;;;;;;5024320;28;20033;-68
2022/04/22 04:52:58;;;;;;;12.55;8.82;;;;;;;;;;5023790;28;20141;-67
2022/04/22 04:55:44;;;;;;;13.50;8.75;;;;;;;;;;5013647;28;20033;-68
2022/04/22 04:58:29;;;;;;;14.07;9.27;;;;;;;;;;4999146;28;20026;-69
2022/04/22 05:01:15;;;;;;;11.93;9.07;;;;;;;;;;4996659;28;20032;-68
2022/04/22 05:04:00;;;;;;;15.07;9.30;;;;;;;;;;5002273;28;20469;-69
2022/04/22 05:06:45;;;;;;;12.98;9.10;;;;;;;;;;5015167;28;20080;-69
2022/04/22 05:09:30;;;;;;;16.67;10.57;;;;;;;;;;5002655;28;20027;-64
2022/04/22 05:12:15;;;;;;;12.45;9.07;;;;;;;;;;5015781;28;20670;-64
2022/04/22 05:15:01;;;;;;;15.05;10.90;;;;;;;;;;5014102;28;20021;-65
2022/04/22 05:17:47;;;;;;;15.70;10.75;;;;;;;;;;5016467;28;20029;-64
2022/04/22 05:20:32;;;;;;;18.58;10.35;;;;;;;;;;5007491;28;20766;-64
2022/04/22 05:23:17;;;;;;;18.75;10.35;;;;;;;;;;5015358;28;20029;-69
2022/04/22 05:26:04;;;;;;;16.08;10.90;;;;;;;;;;5015606;28;20025;-75
2022/04/22 05:28:50;;;;;;;21.90;11.48;;;;;;;;;;5008806;28;20084;-75
2022/04/22 05:34:39;;;;;;;16.58;11.68;;;;;;;;;;5009305;28;20485;-73
2022/04/22 05:37:24;;;;;;;15.90;11.63;;;;;;;;;;5022409;28;20108;-75
2022/04/22 05:40:10;;;;;;;18.77;13.18;;;;;;;;;;5021447;28;20477;-78
2022/04/22 05:42:55;;;;;;;17.15;11.35;;;;;;;;;;5009770;28;20033;-68
2022/04/22 05:45:41;;;;;;;17.30;12.55;;;;;;;;;;5001493;28;20457;-64
2022/04/22 05:48:28;;;;;;;16.98;11.73;;;;;;;;;;5010654;28;20503;-64
2022/04/22 05:51:13;;;;;;;18.27;12.25;;;;;;;;;;4990377;28;20071;-65
2022/04/22 05:53:58;;;;;;;19.42;13.52;;;;;;;;;;5007013;28;20065;-64
2022/04/22 05:56:44;;;;;;;19.80;12.23;;;;;;;;;;4991132;28;20633;-63
2022/04/22 05:59:29;;;;;;;20.15;13.75;;;;;;;;;;4993022;28;20025;-67
2022/04/22 06:02:14;;;;;;;16.95;12.35;;;;;;;;;;4994164;28;20101;-68
2022/04/22 06:04:59;;;;;;;17.88;12.85;;;;;;;;;;4997095;28;20166;-69
2022/04/22 06:07:45;;;;;;;18.33;13.73;;;;;;;;;;5002474;28;20038;-68
2022/04/22 06:10:33;;;;;;;22.30;16.50;;;;;;;;;;5014603;28;20030;-70
2022/04/22 06:13:18;;;;;;;19.05;13.73;;;;;;;;;;5001667;28;20050;-68
2022/04/22 06:16:04;;;;;;;18.10;13.35;;;;;;;;;;4992478;28;20466;-69
2022/04/22 06:18:49;;;;;;;22.38;16.70;;;;;;;;;;5002048;28;20727;-66
2022/04/22 06:21:34;;;;;;;21.42;15.82;;;;;;;;;;5001827;28;20028;-68
2022/04/22 06:24:19;;;;;;;20.98;17.27;;;;;;;;;;5006213;28;20109;-70
2022/04/22 06:27:05;;;;;;;20.65;16.33;;;;;;;;;;4991911;28;20041;-71
2022/04/22 06:29:51;;;;;;;21.65;16.45;;;;;;;;;;5005105;28;20121;-69
2022/04/22 06:32:37;;;;;;;22.30;16.80;;;;;;;;;;5001856;28;20472;-69
2022/04/22 06:35:23;;;;;;;20.40;16.08;;;;;;;;;;5005252;28;21222;-70
2022/04/22 06:38:08;;;;;;;23.45;17.25;;;;;;;;;;5021073;28;20029;-68
2022/04/22 06:47:01;;;;;;;20.65;17.90;;;;;;;;;;4999928;28;20033;-72
2022/04/22 06:49:47;;;;;;;20.45;16.58;;;;;;;;;;5018175;28;20025;-70
2022/04/22 06:52:32;;;;;;;21.00;18.08;;;;;;;;;;5007908;28;20083;-70
2022/04/22 06:55:17;;;;;;;24.10;17.10;;;;;;;;;;5017622;28;20144;-69
2022/04/22 06:58:03;;;;;;;20.10;16.70;;;;;;;;;;5017374;28;20433;-68
2022/04/22 07:00:48;;;;;;;21.40;17.42;;;;;;;;;;4992730;28;20469;-69
2022/04/22 07:03:34;;;;;;;21.30;18.10;;;;;;;;;;4987047;28;20060;-69
2022/04/22 07:06:19;;;;;;;21.05;18.38;;;;;;;;;;5015229;28;20392;-69
2022/04/22 07:09:05;;;;;;;20.27;17.27;;;;;;;;;;4991787;28;20071;-72
2022/04/22 07:11:50;;;;;;;20.85;17.35;;;;;;;;;;5020445;28;20036;-64
2022/04/22 07:14:37;;;;;;;21.77;17.58;;;;;;;;;;5005213;28;20037;-64
2022/04/22 07:17:22;;;;;;;22.73;18.20;;;;;;;;;;4984508;28;20025;-68
2022/04/22 07:20:11;;;;;;;20.48;17.17;;;;;;;;;;5003964;28;20784;-66
2022/04/22 07:22:59;;;;;;;24.00;16.93;;;;;;;;;;5005042;28;21534;-67
2022/04/22 07:25:46;;;;;;;20.67;16.92;;;;;;;;;;5000912;28;20429;-66
2022/04/22 07:28:32;;;;;;;20.58;16.27;;;;;;;;;;5000442;28;20113;-66
2022/04/22 07:31:18;;;;;;;20.85;17.50;;;;;;;;;;5013267;28;20038;-66
2022/04/22 07:34:04;;;;;;;21.33;17.60;;;;;;;;;;5007775;28;20021;-73
2022/04/22 07:36:49;;;;;;;21.85;16.75;;;;;;;;;;4998024;28;20026;-69
2022/04/22 07:39:38;;;;;;;21.83;17.95;;;;;;;;;;5019673;28;20041;-70
2022/04/22 07:42:24;;;;;;;22.00;16.88;;;;;;;;;;5020846;28;20408;-66
2022/04/22 07:48:13;;;;;;;20.42;16.50;;;;;;;;;;4999560;28;20034;-68
2022/04/22 07:50:58;;;;;;;20.83;17.02;;;;;;;;;;5005221;28;20035;-57
2022/04/22 07:53:43;;;;;;;22.10;17.05;;;;;;;;;;5004267;28;20512;-71
2022/04/22 07:56:29;;;;;;;21.13;18.17;;;;;;;;;;5003774;28;20033;-69
2022/04/22 07:59:14;;;;;;;22.63;17.10;;;;;;;;;;5012182;28;20060;-71
2022/04/22 08:01:59;;;;;;;20.80;16.42;;;;;;;;;;5018434;28;20025;-72
2022/04/22 08:04:44;;;;;;;21.52;19.23;;;;;;;;;;5008125;28;20047;-73
2022/04/22 08:07:30;;;;;;;21.45;17.70;;;;;;;;;;5015925;28;20100;-74
2022/04/22 08:10:16;;;;;;;23.65;18.73;;;;;;;;;;5007091;28;20397;-58
2022/04/22 08:13:03;;;;;;;21.55;17.80;;;;;;;;;;5021686;28;20037;-60
2022/04/22 08:15:48;;;;;;;21.73;17.38;;;;;;;;;;5004943;28;20029;-62
2022/04/22 08:18:33;;;;;;;20.98;17.05;;;;;;;;;;5015882;28;20201;-59
2022/04/22 08:21:19;;;;;;;19.50;16.63;;;;;;;;;;4992703;28;20036;-60
2022/04/22 08:24:06;;;;;;;18.10;15.20;;;;;;;;;;5007578;28;20419;-62
2022/04/22 08:26:51;;;;;;;18.08;15.27;;;;;;;;;;4995039;28;20510;-61
2022/04/22 08:29:37;;;;;;;20.80;16.98;;;;;;;;;;5022790;28;20032;-71
2022/04/22 08:32:23;;;;;;;19.90;16.48;;;;;;;;;;5025080;28;20436;-77
2022/04/22 08:35:08;;;;;;;17.58;14.73;;;;;;;;;;5026495;28;20515;-75
2022/04/22 08:37:53;;;;;;;18.33;16.42;;;;;;;;;;5004077;28;20484;-77
2022/04/22 08:40:39;;;;;;;20.15;15.32;;;;;;;;;;5004695;28;20116;-75
2022/04/22 08:43:24;;;;;;;20.27;15.40;;;;;;;;;;5006293;28;20033;-77
2022/04/22 08:52:19;;;;;;;17.23;14.63;;;;;;;;;;5010478;28;20025;-66
2022/04/22 08:55:06;;;;;;;17.73;14.57;;;;;;;;;;5019626;28;20021;-67
2022/04/22 08:57:54;;;;;;;16.13;13.43;;;;;;;;;;5021611;28;20100;-66
2022/04/22 09:00:41;;;;;;;19.13;14.50;;;;;;;;;;5003439;28;20034;-64
2022/04/22 09:03:27;;;;;;;18.00;13.75;;;;;;;;;;5007141;28;20025;-60
2022/04/22 09:06:13;;;;;;;17.77;14.70;;;;;;;;;;5004100;28;20026;-63
2022/04/22 09:08:58;;;;;;;18.27;14.98;;;;;;;;;;5019793;28;20038;-62
2022/04/22 09:11:43;;;;;;;16.27;13.70;;;;;;;;;;4997436;28;20033;-64
2022/04/22 09:14:29;;;;;;;15.52;13.75;;;;;;;;;;5021775;28;20029;-63
2022/04/22 09:17:15;;;;;;;15.05;12.90;;;;;;;;;;4992019;28;20029;-65
2022/04/22 09:20:02;;;;;;;17.55;12.57;;;;;;;;;;5014747;28;20026;-66
2022/04/22 09:22:47;;;;;;;15.07;12.48;;;;;;;;;;4991811;28;20206;-73
2022/04/22 09:25:36;;;;;;;14.77;12.50;;;;;;;;;;5014918;28;20768;-80
2022/04/22 09:28:21;;;;;;;13.77;12.27;;;;;;;;;;5009105;28;20026;-79
2022/04/22 09:31:07;;;;;;;16.25;13.15;;;;;;;;;;5020268;28;20029;-75
2022/04/22 09:33:53;;;;;;;14.90;12.35;;;;;;;;;;5017736;28;20484;-78
2022/04/22 09:42:54;;;;;;;15.93;12.90;;;;;;;;;;4993736;28;20075;-54
2022/04/22 09:45:40;;;;;;;17.65;13.68;;;;;;;;;;5010461;28;20018;-54
2022/04/22 09:48:25;;;;;;;14.60;12.77;;;;;;;;;;5003525;28;20096;-57
2022/04/22 09:51:38;;;;;;;17.25;11.68;;;;;;;;;;5000922;28;20531;-57
2022/04/22 09:54:24;;;;;;;12.95;11.27;;;;;;;;;;4999452;28;20025;-58
2022/04/22 09:57:10;;;;;;;12.85;11.15;;;;;;;;;;5004931;28;20029;-56
2022/04/22 09:59:55;;;;;;;13.45;12.05;;;;;;;;;;5006286;28;20026;-52
2022/04/22 10:02:40;;;;;;;14.43;12.38;;;;;;;;;;5020698;28;20053;-57
2022/04/22 10:05:27;;;;;;;14.80;11.07;;;;;;;;;;4998129;28;20477;-59
2022/04/22 10:08:16;;;;;;;13.48;11.20;;;;;;;;;;5018835;28;20481;-57
2022/04/22 10:11:02;;;;;;;13.73;12.15;;;;;;;;;;5002357;28;20064;-60
2022/04/22 10:13:48;;;;;;;15.05;12.70;;;;;;;;;;5020553;28;20384;-59
2022/04/22 10:16:33;;;;;;;14.15;12.05;;;;;;;;;;5015512;28;20055;-57
2022/04/22 10:19:19;;;;;;;12.88;11.43;;;;;;;;;;4989878;28;20029;-63
2022/04/22 10:22:07;;;;;;;15.32;13.48;;;;;;;;;;5022464;28;20072;-66
2022/04/22 10:24:52;;;;;;;15.60;12.25;;;;;;;;;;4981064;28;20032;-67
2022/04/22 10:27:38;;;;;;;13.77;11.80;;;;;;;;;;5006744;28;20061;-63
2022/04/22 10:30:24;;;;;;;13.75;11.40;;;;;;;;;;5008896;28;20033;-64
2022/04/22 10:33:10;;;;;;;14.60;11.73;;;;;;;;;;5019774;28;20026;-65
2022/04/22 10:36:01;;;;;;;17.35;12.00;;;;;;;;;;5010757;28;20021;-52
2022/04/22 10:38:47;;;;;;;14.07;11.50;;;;;;;;;;5008245;28;20121;-53
2022/04/22 10:41:43;;;;;;;13.20;9.93;;;;;;;;;;5006641;28;20030;-54
2022/04/22 10:47:43;;;;;;;17.52;11.98;;;;;;;;;;5004906;28;20472;-56
2022/04/22 10:50:35;;;;;;;15.43;12.73;;;;;;;;;;5005580;28;20473;-55
2022/04/22 10:53:25;;;;;;;13.35;10.93;;;;;;;;;;5017598;28;20404;-56
2022/04/22 10:56:25;;;;;;;11.15;9.13;;;;;;;;;;5012016;28;20068;-60
2022/04/22 10:59:18;;;;;;;14.55;10.07;;;;;;;;;;4994560;28;20029;-66
2022/04/22 11:02:22;;;;;;;12.50;10.75;;;;;;;;;;5019379;28;20091;-61
2022/04/22 11:05:34;;;;;;;13.57;11.07;;;;;;;;;;4994949;28;20025;-62
2022/04/22 11:08:28;;;;;;;14.55;10.95;;;;;;;;;;4987187;28;20036;-63
2022/04/22 11:11:15;;;;;;;14.35;11.90;;;;;;;;;;5019194;28;20061;-65
2022/04/22 11:14:16;;;;;;;12.70;11.18;;;;;;;;;;5001629;28;20069;-56
2022/04/22 11:17:20;;;;;;;14.38;11.68;;;;;;;;;;5019986;28;20097;-66
2022/04/22 11:20:06;;;;;;;16.30;13.73;;;;;;;;;;5003518;28;20022;-62
2022/04/22 11:22:58;;;;;;;16.05;11.63;;;;;;;;;;5023880;28;20447;-65
2022/04/22 11:25:46;;;;;;;14.63;10.90;;;;;;;;;;5002224;28;20100;-65
2022/04/22 11:28:35;;;;;;;13.98;12.05;;;;;;;;;;5021647;28;20048;-66
2022/04/22 11:31:24;;;;;;;12.18;10.75;;;;;;;;;;5005622;28;20029;-65
2022/04/22 11:34:30;;;;;;;13.27;11.65;;;;;;;;;;4998439;28;20021;-55
2022/04/22 11:37:19;;;;;;;14.35;11.32;;;;;;;;;;5022479;28;20417;-54
2022/04/22 11:40:06;;;;;;;14.23;10.77;;;;;;;;;;5022027;28;20073;-52
2022/04/22 11:42:54;;;;;;;16.90;11.30;;;;;;;;;;5011333;28;20034;-56
2022/04/22 11:45:40;;;;;;;13.00;10.48;;;;;;;;;;5011031;28;20048;-52
2022/04/22 11:48:25;;;;;;;14.90;10.68;;;;;;;;;;5002795;28;20370;-56
2022/04/22 11:51:11;;;;;;;14.88;12.00;;;;;;;;;;5002940;28;20037;-63
2022/04/22 11:53:56;;;;;;;17.40;11.82;;;;;;;;;;5011704;28;20029;-62
2022/04/22 11:56:44;;;;;;;13.27;11.18;;;;;;;;;;5020873;28;20068;-61
2022/04/22 11:59:29;;;;;;;14.50;11.50;;;;;;;;;;5021998;28;20025;-67
2022/04/22 12:05:34;;;;;;;13.65;10.73;;;;;;;;;;5010263;28;20108;-63
2022/04/22 12:08:19;;;;;;;12.20;10.13;;;;;;;;;;5024397;28;20128;-53
2022/04/22 12:11:04;;;;;;;12.02;8.75;;;;;;;;;;5019602;28;20034;-67
2022/04/22 12:13:50;;;;;;;11.98;9.43;;;;;;;;;;5015098;28;20029;-67
2022/04/22 12:16:36;;;;;;;11.57;9.38;;;;;;;;;;5007781;28;20075;-69
2022/04/22 12:19:22;;;;;;;15.75;10.52;;;;;;;;;;5008517;28;20037;-68
2022/04/22 12:22:07;;;;;;;11.90;10.27;;;;;;;;;;5008989;28;20083;-65
2022/04/22 12:25:09;;;;;;;14.00;10.85;;;;;;;;;;5001169;28;20036;-66
2022/04/22 12:28:05;;;;;;;12.05;9.93;;;;;;;;;;5015732;28;20099;-63
2022/04/22 12:30:50;;;;;;;13.20;11.20;;;;;;;;;;5005726;28;20052;-56
2022/04/22 12:33:35;;;;;;;15.98;11.23;;;;;;;;;;5024676;28;20061;-57
2022/04/22 12:36:21;;;;;;;12.93;10.05;;;;;;;;;;5024547;28;20029;-55
2022/04/22 12:39:08;;;;;;;15.15;10.88;;;;;;;;;;5023804;28;20511;-57
2022/04/22 12:41:53;;;;;;;12.02;9.60;;;;;;;;;;5019100;28;20516;-55
2022/04/22 12:44:38;;;;;;;15.82;9.18;;;;;;;;;;5022243;28;20033;-55
2022/04/22 12:53:33;;;;;;;12.45;9.48;;;;;;;;;;5008085;28;20148;-63
2022/04/22 12:56:25;;;;;;;12.43;9.13;;;;;;;;;;5020133;28;20029;-63
2022/04/22 12:59:10;;;;;;;11.85;9.95;;;;;;;;;;5010665;28;20599;-63
2022/04/22 13:02:05;;;;;;;15.68;10.15;;;;;;;;;;4999702;28;20256;-63
2022/04/22 13:04:51;;;;;;;14.02;10.65;;;;;;;;;;5004560;28;20339;-67
2022/04/22 13:07:38;;;;;;;14.80;11.35;;;;;;;;;;5023908;28;20033;-54
2022/04/22 13:10:23;;;;;;;13.43;8.80;;;;;;;;;;5010587;28;20028;-46
2022/04/22 13:13:08;;;;;;;11.10;9.23;;;;;;;;;;5012395;28;20504;-51
2022/04/22 13:15:54;;;;;;;13.65;8.75;;;;;;;;;;5005262;28;20036;-49
2022/04/22 13:18:39;;;;;;;12.73;10.07;;;;;;;;;;5019370;28;20481;-57
2022/04/22 13:21:24;;;;;;;13.65;8.45;;;;;;;;;;5012635;28;20022;-60
2022/04/22 13:24:10;;;;;;;10.60;8.13;;;;;;;;;;5005925;28;20457;-59
2022/04/22 13:26:57;;;;;;;11.73;9.82;;;;;;;;;;5001168;28;20033;-61
2022/04/22 13:29:42;;;;;;;10.63;8.35;;;;;;;;;;5020693;28;20484;-61
2022/04/22 13:32:28;;;;;;;10.63;9.10;;;;;;;;;;5010997;28;20370;-63
2022/04/22 13:35:13;;;;;;;10.40;7.93;;;;;;;;;;5002816;28;20335;-61
2022/04/22 13:37:59;;;;;;;12.60;8.25;;;;;;;;;;5024398;28;20488;-60
2022/04/22 13:40:44;;;;;;;12.63;9.65;;;;;;;;;;5006833;28;20037;-50
2022/04/22 13:43:30;;;;;;;11.32;9.60;;;;;;;;;;5006164;28;20108;-61
2022/04/22 13:52:26;;;;;;;8.88;7.00;;;;;;;;;;5001257;28;20026;-61
2022/04/22 13:55:12;;;;;;;9.65;8.02;;;;;;;;;;5018721;28;20109;-62
2022/04/22 13:57:58;;;;;;;12.35;8.60;;;;;;;;;;5003472;28;20362;-60
2022/04/22 14:00:43;;;;;;;10.68;7.13;;;;;;;;;;4993643;28;20033;-64
2022/04/22 14:03:29;;;;;;;8.95;7.05;;;;;;;;;;5004611;28;20049;-62
2022/04/22 14:06:14;;;;;;;12.98;11.25;;;;;;;;;;5009529;28;20033;-63
2022/04/22 14:09:01;;;;;;;12.90;8.43;;;;;;;;;;5018795;28;20116;-61
2022/04/22 14:11:46;;;;;;;15.55;8.95;;;;;;;;;;5005657;28;20454;-62
2022/04/22 14:14:32;;;;;;;10.93;8.45;;;;;;;;;;5007301;28;20120;-63
2022/04/22 14:17:17;;;;;;;12.65;8.65;;;;;;;;;;5006901;28;20022;-53
2022/04/22 14:20:05;;;;;;;12.25;8.50;;;;;;;;;;5009161;28;20033;-61
2022/04/22 14:22:50;;;;;;;14.50;8.93;;;;;;;;;;5020327;28;20111;-66
2022/04/22 14:25:36;;;;;;;12.35;9.02;;;;;;;;;;5006630;28;20492;-64
2022/04/22 14:28:25;;;;;;;12.65;9.13;;;;;;;;;;5002833;28;20029;-63
2022/04/22 14:31:11;;;;;;;12.07;8.07;;;;;;;;;;5004440;28;20033;-62
2022/04/22 14:33:57;;;;;;;9.50;7.20;;;;;;;;;;5008294;28;20118;-62
2022/04/22 14:36:42;;;;;;;11.23;9.23;;;;;;;;;;5007837;28;20026;-55
2022/04/22 14:39:27;;;;;;;10.85;7.63;;;;;;;;;;5005708;28;20040;-65
2022/04/22 14:42:13;;;;;;;9.43;7.43;;;;;;;;;;4996035;28;20025;-66
2022/04/22 14:44:58;;;;;;;10.52;7.60;;;;;;;;;;5002840;28;20033;-64
2022/04/22 14:47:43;;;;;;;10.70;7.85;;;;;;;;;;5016622;28;20037;-64
2022/04/22 14:50:30;;;;;;;10.93;8.73;;;;;;;;;;5006928;28;20368;-64
2022/04/22 14:53:16;;;;;;;9.70;7.18;;;;;;;;;;5017838;28;20037;-61
2022/04/22 14:56:01;;;;;;;9.68;6.55;;;;;;;;;;5007111;28;20056;-58
2022/04/22 14:58:49;;;;;;;13.07;8.70;;;;;;;;;;5018661;28;20041;-62
2022/04/22 15:01:34;;;;;;;11.63;7.20;;;;;;;;;;5007978;28;20032;-63
2022/04/22 15:04:20;;;;;;;10.73;7.88;;;;;;;;;;5017792;28;20419;-64
2022/04/22 15:07:05;;;;;;;8.45;6.75;;;;;;;;;;5005644;28;20501;-62
2022/04/22 15:09:50;;;;;;;8.52;6.80;;;;;;;;;;5019553;28;20199;-63
2022/04/22 15:12:36;;;;;;;9.23;7.63;;;;;;;;;;5009429;28;20343;-66
2022/04/22 15:15:21;;;;;;;10.48;6.55;;;;;;;;;;5021072;28;20018;-63
2022/04/22 15:24:16;;;;;;;12.07;7.53;;;;;;;;;;5020015;28;20468;-65
2022/04/22 15:27:01;;;;;;;11.32;7.05;;;;;;;;;;5005434;28;20500;-65
2022/04/22 15:29:46;;;;;;;12.13;7.80;;;;;;;;;;5006254;28;20034;-67
2022/04/22 15:32:32;;;;;;;11.85;6.53;;;;;;;;;;5010713;28;20076;-63
2022/04/22 15:35:17;;;;;;;9.52;6.75;;;;;;;;;;5017991;28;20047;-56
2022/04/22 15:38:03;;;;;;;9.13;7.15;;;;;;;;;;4999927;28;20025;-55
2022/04/22 15:40:48;;;;;;;10.77;7.35;;;;;;;;;;5000703;28;20377;-51
2022/04/22 15:43:35;;;;;;;10.85;7.82;;;;;;;;;;5013965;28;20087;-54
2022/04/22 15:46:21;;;;;;;12.88;7.97;;;;;;;;;;5007696;28;20025;-55
2022/04/22 15:49:07;;;;;;;11.27;6.82;;;;;;;;;;5009682;28;20037;-61
2022/04/22 15:51:56;;;;;;;17.77;8.65;;;;;;;;;;5004084;28;20029;-57
2022/04/22 15:54:41;;;;;;;17.20;8.75;;;;;;;;;;4983095;28;20033;-60
2022/04/22 15:57:26;;;;;;;10.15;6.68;;;;;;;;;;5002149;28;20068;-60
2022/04/22 16:00:11;;;;;;;10.30;7.65;;;;;;;;;;5014576;28;20119;-58
2022/04/22 16:02:57;;;;;;;13.43;6.80;;;;;;;;;;5001402;28;20116;-59
2022/04/22 16:05:42;;;;;;;21.50;7.78;;;;;;;;;;5008770;28;20410;-57
2022/04/22 16:08:27;;;;;;;10.35;7.53;;;;;;;;;;5002943;28;20160;-66
2022/04/22 16:17:20;;;;;;;9.02;6.93;;;;;;;;;;4997399;28;20069;-79
2022/04/22 16:20:07;;;;;;;8.40;5.97;;;;;;;;;;5012211;28;20030;-77
2022/04/22 16:22:53;;;;;;;8.63;5.78;;;;;;;;;;5011381;28;20076;-77
2022/04/22 16:25:39;;;;;;;8.55;6.18;;;;;;;;;;5022912;28;20048;-76
2022/04/22 16:28:24;;;;;;;10.00;6.35;;;;;;;;;;5008271;28;20038;-67
2022/04/22 16:31:10;;;;;;;8.88;6.20;;;;;;;;;;4993850;28;20045;-66
2022/04/22 16:33:55;;;;;;;9.70;6.35;;;;;;;;;;5014689;28;20041;-65
2022/04/22 16:36:40;;;;;;;8.45;6.10;;;;;;;;;;5005803;28;20112;-66
2022/04/22 16:39:26;;;;;;;8.75;6.15;;;;;;;;;;5017151;28;20021;-64
2022/04/22 16:42:11;;;;;;;9.32;6.88;;;;;;;;;;5015468;28;20025;-65
2022/04/22 16:44:56;;;;;;;10.70;6.35;;;;;;;;;;5003850;28;20477;-66
2022/04/22 16:47:42;;;;;;;8.63;6.55;;;;;;;;;;5009298;28;20091;-62
2022/04/22 16:50:27;;;;;;;8.32;5.72;;;;;;;;;;5008876;28;20058;-63
2022/04/22 16:53:13;;;;;;;35.03;31.48;;;;;;;;;;5011362;28;20118;-61
2022/04/22 16:55:59;;;;;;;12.10;9.63;;;;;;;;;;5013472;28;20063;-65
2022/04/22 16:58:44;;;;;;;88.85;79.15;;;;;;;;;;5011191;28;20275;-62
2022/04/22 17:01:30;;;;;;;78.65;71.28;;;;;;;;;;5010889;28;20030;-62
2022/04/22 17:04:15;;;;;;;21.27;17.25;;;;;;;;;;5023258;28;20025;-75
2022/04/22 17:07:01;;;;;;;20.42;15.38;;;;;;;;;;5016254;28;20043;-66
2022/04/22 17:09:46;;;;;;;15.80;11.80;;;;;;;;;;5006062;28;20212;-68
2022/04/22 17:12:32;;;;;;;10.13;6.25;;;;;;;;;;5010881;28;20029;-67
2022/04/22 17:24:29;;;;;;;7.70;5.75;;;;;;;;;;5014230;28;20064;-70
2022/04/22 17:27:14;;;;;;;12.77;6.78;;;;;;;;;;5006828;28;20072;-69
2022/04/22 17:30:00;;;;;;;9.10;5.85;;;;;;;;;;5017816;28;20022;-70
2022/04/22 17:32:45;;;;;;;9.23;6.22;;;;;;;;;;5007750;28;20033;-70
2022/04/22 17:35:31;;;;;;;11.30;6.13;;;;;;;;;;5026789;28;20033;-70
2022/04/22 17:38:16;;;;;;;10.40;6.32;;;;;;;;;;5015504;28;20107;-72
2022/04/22 17:41:03;;;;;;;31.90;25.88;;;;;;;;;;5015665;28;20021;-75
2022/04/22 17:43:49;;;;;;;13.82;7.45;;;;;;;;;;5014161;28;20033;-67
2022/04/22 17:46:34;;;;;;;11.88;6.80;;;;;;;;;;5012073;28;20033;-68
2022/04/22 17:49:20;;;;;;;10.82;5.50;;;;;;;;;;5011598;28;20489;-67
2022/04/22 17:52:06;;;;;;;6.95;5.45;;;;;;;;;;5015274;28;20120;-68
2022/04/22 17:54:51;;;;;;;13.27;8.88;;;;;;;;;;5010036;28;20060;-70